Time;durP1;ratioP1;P1;durP2;ratioP2;P2;SDS_P1;SDS_P2;PMS_P1;PMS_P2;Temp;Humidity;BMP_temperature;BMP_pressure;BME280_temperature;BME280_humidity;BME280_pressure;Samples;Min_cycle;Max_cycle;Signal;HPM_P1;HPM_P2
2023/08/04 00:00:09;;;;;;;2.80;0.73;;;17.10;99.90;;;;;;5031186;28;20509;-50
2023/08/04 00:02:35;;;;;;;8.50;1.00;;;17.10;99.90;;;;;;5032946;28;20462;-52
2023/08/04 00:05:04;;;;;;;3.50;1.20;;;17.10;99.90;;;;;;5032057;28;20458;-50
2023/08/04 00:07:30;;;;;;;2.50;0.93;;;17.10;99.90;;;;;;5032609;28;20447;-50
2023/08/04 00:09:57;;;;;;;1.67;0.87;;;17.10;99.90;;;;;;5038945;28;20541;-49
2023/08/04 00:12:24;;;;;;;3.07;1.13;;;17.10;99.90;;;;;;5039871;28;20538;-50
2023/08/04 00:14:51;;;;;;;2.77;0.90;;;17.10;99.90;;;;;;5038824;28;20581;-50
2023/08/04 00:17:18;;;;;;;1.90;0.87;;;17.10;99.90;;;;;;5032372;28;20505;-51
2023/08/04 00:19:45;;;;;;;7.73;1.00;;;17.10;99.90;;;;;;5039288;28;21114;-50
2023/08/04 00:22:12;;;;;;;1.40;1.00;;;17.10;99.90;;;;;;5031835;28;20479;-50
2023/08/04 00:24:39;;;;;;;4.83;1.13;;;17.10;99.90;;;;;;5029511;28;20571;-50
2023/08/04 00:27:05;;;;;;;3.33;1.20;;;17.10;99.90;;;;;;5032536;28;20470;-51
2023/08/04 00:29:32;;;;;;;3.00;1.00;;;17.10;99.90;;;;;;5052048;28;20473;-51
2023/08/04 00:31:58;;;;;;;2.60;1.30;;;17.10;99.90;;;;;;5037331;28;20557;-50
2023/08/04 00:34:25;;;;;;;2.63;1.33;;;17.10;99.90;;;;;;5031027;28;21051;-51
2023/08/04 00:36:51;;;;;;;1.43;1.30;;;17.20;99.90;;;;;;5032068;28;21012;-50
2023/08/04 00:39:19;;;;;;;10.30;1.40;;;17.10;99.90;;;;;;5029826;28;20501;-51
2023/08/04 00:41:46;;;;;;;8.13;1.77;;;17.10;99.90;;;;;;5032168;28;20514;-50
2023/08/04 00:44:12;;;;;;;1.77;1.27;;;17.10;99.90;;;;;;5031551;28;20526;-51
2023/08/04 00:46:39;;;;;;;5.73;1.43;;;17.10;99.90;;;;;;5032457;28;20530;-50
2023/08/04 00:49:08;;;;;;;5.30;1.30;;;17.10;99.90;;;;;;5029849;28;20494;-50
2023/08/04 00:51:35;;;;;;;1.23;1.10;;;17.10;99.90;;;;;;5040796;28;20484;-51
2023/08/04 00:54:03;;;;;;;6.10;1.60;;;17.10;99.90;;;;;;5040231;28;20907;-51
2023/08/04 00:56:32;;;;;;;4.83;1.40;;;17.10;99.90;;;;;;5029979;28;20581;-50
2023/08/04 00:58:59;;;;;;;2.90;1.50;;;17.10;99.90;;;;;;5031931;28;20482;-50
2023/08/04 01:01:25;;;;;;;5.50;1.53;;;17.10;99.90;;;;;;5032070;28;20475;-50
2023/08/04 01:03:53;;;;;;;8.13;1.40;;;17.10;99.90;;;;;;5029418;28;20455;-49
2023/08/04 01:06:30;;;;;;;7.83;1.80;;;17.10;99.90;;;;;;5029296;28;20514;-51
2023/08/04 01:09:02;;;;;;;5.00;1.80;;;17.10;99.90;;;;;;5037876;28;20557;-51
2023/08/04 01:11:38;;;;;;;2.23;1.60;;;17.10;99.90;;;;;;5030794;28;20482;-50
2023/08/04 01:14:06;;;;;;;5.77;2.10;;;17.10;99.90;;;;;;5031070;28;21081;-50
2023/08/04 01:16:32;;;;;;;3.80;2.07;;;17.10;99.90;;;;;;5031904;28;20541;-50
2023/08/04 01:18:59;;;;;;;2.37;1.60;;;17.00;99.90;;;;;;5027790;28;20521;-50
2023/08/04 01:21:27;;;;;;;5.30;1.80;;;17.10;99.90;;;;;;5030376;28;20487;-51
2023/08/04 01:23:54;;;;;;;3.57;1.70;;;17.10;99.90;;;;;;5025358;28;20530;-51
2023/08/04 01:26:21;;;;;;;2.87;1.53;;;17.10;99.90;;;;;;5031867;28;20542;-51
2023/08/04 01:28:49;;;;;;;3.80;2.07;;;17.00;99.90;;;;;;5033375;28;20489;-51
2023/08/04 01:31:16;;;;;;;4.90;2.23;;;17.00;99.90;;;;;;5033697;28;21349;-51
2023/08/04 01:33:43;;;;;;;2.23;2.00;;;17.10;99.90;;;;;;5041770;28;20572;-50
2023/08/04 01:36:10;;;;;;;3.43;1.40;;;17.10;99.90;;;;;;5056512;28;20485;-50
2023/08/04 01:38:38;;;;;;;8.00;2.27;;;17.00;99.90;;;;;;5037314;28;20494;-51
2023/08/04 01:41:05;;;;;;;6.27;1.70;;;17.00;99.90;;;;;;5035065;28;20568;-51
2023/08/04 01:43:32;;;;;;;4.80;2.20;;;17.10;99.90;;;;;;5034409;28;20477;-50
2023/08/04 01:45:58;;;;;;;4.80;1.67;;;17.00;99.90;;;;;;5035302;28;20494;-51
2023/08/04 01:48:25;;;;;;;1.80;1.60;;;17.10;99.90;;;;;;5035498;28;20482;-49
2023/08/04 01:50:51;;;;;;;3.40;1.50;;;17.10;99.90;;;;;;5035259;28;20968;-50
2023/08/04 01:53:18;;;;;;;6.53;1.93;;;17.10;99.90;;;;;;5032992;28;20490;-50
2023/08/04 01:55:48;;;;;;;10.73;1.87;;;17.00;99.90;;;;;;5036358;28;20501;-50
2023/08/04 01:58:15;;;;;;;4.63;1.80;;;17.10;99.90;;;;;;5042427;28;20473;-50
2023/08/04 02:00:42;;;;;;;14.97;1.93;;;17.10;99.90;;;;;;5055146;28;20936;-51
2023/08/04 02:03:08;;;;;;;7.00;1.90;;;17.10;99.90;;;;;;5055100;28;20865;-52
2023/08/04 02:05:35;;;;;;;4.70;1.77;;;17.00;99.90;;;;;;5054180;28;20523;-51
2023/08/04 02:08:01;;;;;;;3.77;1.57;;;17.00;99.90;;;;;;5040822;28;20498;-49
2023/08/04 02:10:28;;;;;;;7.10;1.70;;;17.00;99.90;;;;;;5046734;28;20473;-51
2023/08/04 02:12:55;;;;;;;5.60;2.30;;;17.00;99.90;;;;;;5051146;28;20877;-51
2023/08/04 02:15:22;;;;;;;6.07;2.37;;;17.10;99.90;;;;;;5031919;28;20527;-50
2023/08/04 02:17:49;;;;;;;5.90;2.00;;;17.10;99.90;;;;;;5034959;28;20442;-50
2023/08/04 02:20:15;;;;;;;5.57;2.10;;;17.10;99.90;;;;;;5033933;28;20470;-51
2023/08/04 02:22:42;;;;;;;5.57;1.77;;;17.00;99.90;;;;;;5033896;28;20462;-50
2023/08/04 02:25:09;;;;;;;14.53;2.93;;;17.00;99.90;;;;;;5035516;28;20486;-51
2023/08/04 02:27:35;;;;;;;9.97;2.50;;;17.00;99.90;;;;;;5026304;28;20494;-50
2023/08/04 02:30:04;;;;;;;7.73;2.73;;;17.00;99.90;;;;;;5030940;28;20494;-50
2023/08/04 02:32:30;;;;;;;7.87;3.23;;;17.00;99.90;;;;;;5040489;28;20494;-50
2023/08/04 02:34:57;;;;;;;8.67;2.80;;;17.00;99.90;;;;;;5028796;28;20525;-50
2023/08/04 02:37:23;;;;;;;8.17;2.53;;;17.00;99.90;;;;;;5033460;28;20967;-50
2023/08/04 02:39:50;;;;;;;7.70;2.17;;;17.00;99.90;;;;;;5033639;28;20478;-50
2023/08/04 02:42:16;;;;;;;7.57;2.53;;;17.00;99.90;;;;;;5034462;28;20470;-50
2023/08/04 02:44:43;;;;;;;8.67;2.10;;;17.00;99.90;;;;;;5040544;28;20900;-49
2023/08/04 02:47:11;;;;;;;10.00;2.30;;;17.00;99.90;;;;;;5035718;28;20491;-50
2023/08/04 02:49:37;;;;;;;7.67;2.50;;;16.90;99.90;;;;;;5034482;28;20489;-51
2023/08/04 02:52:05;;;;;;;4.30;2.33;;;17.00;99.90;;;;;;5037443;28;20467;-49
2023/08/04 02:54:31;;;;;;;7.90;2.77;;;16.90;99.90;;;;;;5033920;28;20498;-52
2023/08/04 02:56:58;;;;;;;4.47;2.93;;;16.90;99.90;;;;;;5042574;28;20569;-52
2023/08/04 02:59:24;;;;;;;18.47;2.60;;;16.90;99.90;;;;;;5034290;28;20466;-52
2023/08/04 03:01:51;;;;;;;7.53;2.53;;;16.90;99.90;;;;;;5034632;28;20493;-53
2023/08/04 03:04:18;;;;;;;8.20;2.20;;;16.90;99.90;;;;;;5040688;28;20502;-51
2023/08/04 03:06:45;;;;;;;4.70;2.50;;;16.90;99.90;;;;;;5033697;28;20479;-52
2023/08/04 03:09:11;;;;;;;13.20;2.77;;;16.90;99.90;;;;;;5041759;28;20490;-60
2023/08/04 03:11:38;;;;;;;5.77;2.50;;;16.90;99.90;;;;;;5033889;28;20481;-52
2023/08/04 03:14:04;;;;;;;8.70;2.70;;;16.80;99.90;;;;;;5033051;28;21067;-53
2023/08/04 03:16:31;;;;;;;7.20;2.50;;;16.80;99.90;;;;;;5032251;28;20478;-54
2023/08/04 03:18:58;;;;;;;8.17;2.60;;;16.80;99.90;;;;;;5032141;28;20948;-53
2023/08/04 03:21:25;;;;;;;10.30;2.97;;;16.80;99.90;;;;;;5052152;28;20442;-54
2023/08/04 03:23:52;;;;;;;11.37;2.90;;;16.70;99.90;;;;;;5042445;28;20516;-52
2023/08/04 03:26:18;;;;;;;7.00;2.50;;;16.70;99.90;;;;;;5035547;28;20520;-52
2023/08/04 03:28:45;;;;;;;10.20;2.90;;;16.70;99.90;;;;;;5033600;28;20891;-51
2023/08/04 03:31:11;;;;;;;11.50;3.50;;;16.70;99.90;;;;;;5033770;28;20479;-51
2023/08/04 03:33:38;;;;;;;5.30;2.57;;;16.70;99.90;;;;;;5029670;28;20487;-51
2023/08/04 03:36:05;;;;;;;9.33;2.43;;;16.70;99.90;;;;;;5034409;28;20541;-53
2023/08/04 03:38:33;;;;;;;12.07;3.10;;;16.70;99.90;;;;;;5043016;28;20491;-52
2023/08/04 03:40:59;;;;;;;6.37;2.30;;;16.70;99.90;;;;;;5035740;28;20521;-52
2023/08/04 03:43:26;;;;;;;9.73;2.60;;;16.70;99.90;;;;;;5049121;28;20813;-53
2023/08/04 03:45:52;;;;;;;6.57;2.70;;;16.70;99.90;;;;;;5052782;28;20493;-53
2023/08/04 03:48:19;;;;;;;12.27;3.03;;;16.70;99.90;;;;;;5029557;28;20558;-52
2023/08/04 03:50:45;;;;;;;9.73;2.97;;;16.70;99.90;;;;;;5037383;28;20979;-52
2023/08/04 03:53:12;;;;;;;13.43;3.13;;;16.70;99.90;;;;;;5044780;28;20466;-53
2023/08/04 03:55:39;;;;;;;7.20;2.93;;;16.70;99.90;;;;;;5048115;28;20525;-54
2023/08/04 03:58:06;;;;;;;7.20;3.10;;;16.70;99.90;;;;;;5027412;28;20480;-53
2023/08/04 04:00:32;;;;;;;7.77;3.00;;;16.60;99.90;;;;;;5023581;28;20544;-53
2023/08/04 04:02:59;;;;;;;10.97;3.70;;;16.60;99.90;;;;;;5027664;28;20510;-52
2023/08/04 04:05:26;;;;;;;9.30;2.53;;;16.60;99.90;;;;;;5022427;28;20563;-51
2023/08/04 04:07:52;;;;;;;8.43;2.97;;;16.60;99.90;;;;;;5037389;28;20463;-52
2023/08/04 04:10:19;;;;;;;8.40;2.80;;;16.50;99.90;;;;;;5042095;28;20501;-52
2023/08/04 04:12:47;;;;;;;9.57;3.03;;;16.50;99.90;;;;;;5027859;28;20498;-51
2023/08/04 04:15:13;;;;;;;10.90;2.87;;;16.50;99.90;;;;;;5028435;28;20585;-51
2023/08/04 04:17:40;;;;;;;7.53;3.13;;;16.50;99.90;;;;;;5033351;28;20592;-52
2023/08/04 04:20:07;;;;;;;11.17;2.87;;;16.50;99.90;;;;;;5019404;28;20948;-52
2023/08/04 04:22:34;;;;;;;9.77;3.00;;;16.50;99.90;;;;;;5025015;28;20575;-51
2023/08/04 04:25:02;;;;;;;10.83;3.60;;;16.50;99.90;;;;;;5022828;28;20505;-50
2023/08/04 04:27:29;;;;;;;13.47;3.80;;;16.60;99.90;;;;;;5022695;28;20466;-50
2023/08/04 04:29:57;;;;;;;10.70;2.90;;;16.60;99.90;;;;;;5023495;28;20558;-51
2023/08/04 04:32:23;;;;;;;6.40;2.73;;;16.60;99.90;;;;;;5024842;28;20454;-50
2023/08/04 04:34:51;;;;;;;9.90;3.70;;;16.70;99.90;;;;;;5028328;28;20515;-50
2023/08/04 04:37:17;;;;;;;10.57;3.77;;;16.70;99.90;;;;;;5020113;28;20532;-50
2023/08/04 04:39:44;;;;;;;18.77;3.30;;;16.70;99.90;;;;;;5037765;28;20501;-51
2023/08/04 04:42:11;;;;;;;16.33;4.00;;;16.70;99.90;;;;;;5032709;28;20498;-50
2023/08/04 04:44:37;;;;;;;9.37;3.47;;;16.70;99.90;;;;;;5031834;28;20478;-50
2023/08/04 04:47:06;;;;;;;10.50;3.10;;;16.70;99.90;;;;;;5035895;28;20517;-50
2023/08/04 04:49:32;;;;;;;15.73;3.73;;;16.70;99.90;;;;;;5045074;28;20485;-50
2023/08/04 04:51:59;;;;;;;8.87;3.57;;;16.70;99.90;;;;;;5033034;28;20443;-51
2023/08/04 04:54:25;;;;;;;8.27;3.43;;;16.70;99.90;;;;;;5039055;28;20533;-50
2023/08/04 04:56:52;;;;;;;9.80;3.27;;;16.70;99.90;;;;;;5033646;28;20907;-50
2023/08/04 04:59:18;;;;;;;15.23;3.50;;;16.70;99.90;;;;;;5031785;28;20597;-51
2023/08/04 05:01:45;;;;;;;19.87;3.20;;;16.70;99.90;;;;;;5034063;28;20494;-50
2023/08/04 05:04:13;;;;;;;10.77;3.70;;;16.80;99.90;;;;;;5032753;28;20502;-51
2023/08/04 05:06:39;;;;;;;11.80;4.10;;;16.70;99.90;;;;;;5045778;28;20879;-51
2023/08/04 05:09:08;;;;;;;9.17;3.33;;;16.70;99.90;;;;;;5054267;28;20477;-50
2023/08/04 05:11:34;;;;;;;5.90;3.17;;;16.70;99.90;;;;;;5044823;28;20494;-50
2023/08/04 05:14:01;;;;;;;18.93;3.60;;;16.70;99.90;;;;;;5029877;28;20512;-51
2023/08/04 05:16:27;;;;;;;11.83;3.83;;;16.70;99.90;;;;;;5032508;28;20533;-51
2023/08/04 05:18:54;;;;;;;12.27;3.53;;;16.70;99.90;;;;;;5031434;28;20494;-53
2023/08/04 05:21:22;;;;;;;15.07;3.70;;;16.70;99.90;;;;;;5052727;28;20964;-50
2023/08/04 05:23:48;;;;;;;8.77;3.73;;;16.70;99.90;;;;;;5042927;28;20490;-50
2023/08/04 05:26:15;;;;;;;7.90;3.20;;;16.70;99.90;;;;;;5046061;28;20525;-50
2023/08/04 05:28:41;;;;;;;12.70;3.20;;;16.70;99.90;;;;;;5048031;28;20490;-52
2023/08/04 05:31:08;;;;;;;22.30;3.97;;;16.60;99.90;;;;;;5066305;28;20442;-50
2023/08/04 05:33:34;;;;;;;5.57;2.80;;;16.70;99.90;;;;;;5064303;28;20459;-51
2023/08/04 05:36:02;;;;;;;11.90;3.60;;;16.60;99.90;;;;;;5056840;28;20486;-51
2023/08/04 05:38:30;;;;;;;7.53;2.90;;;16.60;99.90;;;;;;5051045;28;20451;-51
2023/08/04 05:41:01;;;;;;;9.67;3.47;;;16.60;99.90;;;;;;5050078;28;20486;-51
2023/08/04 05:43:27;;;;;;;9.60;3.10;;;16.60;99.90;;;;;;5044851;28;20991;-51
2023/08/04 05:45:54;;;;;;;13.67;3.20;;;16.60;99.90;;;;;;5036523;28;20908;-50
2023/08/04 05:48:20;;;;;;;9.53;2.57;;;16.60;99.90;;;;;;5028709;28;20474;-51
2023/08/04 05:50:47;;;;;;;9.70;2.73;;;16.50;99.90;;;;;;5028658;28;20502;-50
2023/08/04 05:53:14;;;;;;;14.83;3.40;;;16.60;99.90;;;;;;5028091;28;20467;-50
2023/08/04 05:55:42;;;;;;;20.27;4.50;;;16.60;99.90;;;;;;5026800;28;20487;-50
2023/08/04 05:58:08;;;;;;;8.43;2.63;;;16.60;99.90;;;;;;5039553;28;20959;-51
2023/08/04 06:00:35;;;;;;;6.43;3.00;;;16.60;99.90;;;;;;5033766;28;20506;-51
2023/08/04 06:03:02;;;;;;;12.90;3.10;;;16.50;99.90;;;;;;5030796;28;20467;-50
2023/08/04 06:05:28;;;;;;;12.10;3.90;;;16.60;99.90;;;;;;5041583;28;20463;-50
2023/08/04 06:07:55;;;;;;;17.37;3.67;;;16.60;99.90;;;;;;5049418;28;20478;-50
2023/08/04 06:10:22;;;;;;;9.33;3.90;;;16.60;99.90;;;;;;5028200;28;20563;-51
2023/08/04 06:12:50;;;;;;;11.90;5.13;;;16.50;99.90;;;;;;5030458;28;20486;-51
2023/08/04 06:15:17;;;;;;;15.00;4.20;;;16.50;99.90;;;;;;5039420;28;20474;-51
2023/08/04 06:17:44;;;;;;;11.07;3.10;;;16.50;99.90;;;;;;5039200;28;20521;-49
2023/08/04 06:20:11;;;;;;;3.87;2.70;;;16.60;99.90;;;;;;5040538;28;20476;-51
2023/08/04 06:22:38;;;;;;;16.00;3.20;;;16.60;99.90;;;;;;5041632;28;21036;-50
2023/08/04 06:25:05;;;;;;;11.40;2.93;;;16.50;99.90;;;;;;5031243;28;21043;-51
2023/08/04 06:27:32;;;;;;;8.43;3.60;;;16.50;99.90;;;;;;5033521;28;20497;-50
2023/08/04 06:30:00;;;;;;;12.57;3.57;;;16.50;99.90;;;;;;5036825;28;20454;-51
2023/08/04 06:32:28;;;;;;;9.33;2.90;;;16.50;99.90;;;;;;5028943;28;20467;-50
2023/08/04 06:34:55;;;;;;;7.43;3.73;;;16.50;99.90;;;;;;5026774;28;20490;-52
2023/08/04 06:37:21;;;;;;;8.00;2.80;;;16.50;99.90;;;;;;5033351;28;20513;-53
2023/08/04 06:39:49;;;;;;;6.53;2.83;;;16.50;99.90;;;;;;5031696;28;20501;-51
2023/08/04 06:42:15;;;;;;;11.70;3.27;;;16.60;99.90;;;;;;5035974;28;20450;-52
2023/08/04 06:44:42;;;;;;;9.37;3.00;;;16.60;99.90;;;;;;5028169;28;20581;-54
2023/08/04 06:47:10;;;;;;;10.50;2.90;;;16.60;99.90;;;;;;5029847;28;20546;-53
2023/08/04 06:49:36;;;;;;;11.03;2.77;;;16.70;99.90;;;;;;5037563;28;20493;-53
2023/08/04 06:52:04;;;;;;;11.50;3.10;;;16.70;99.90;;;;;;5035959;28;20502;-53
2023/08/04 06:54:30;;;;;;;20.97;3.70;;;16.80;99.90;;;;;;5030340;28;21019;-51
2023/08/04 06:56:57;;;;;;;5.20;3.20;;;16.90;99.90;;;;;;5029233;28;20557;-52
2023/08/04 06:59:23;;;;;;;9.77;2.90;;;16.90;99.90;;;;;;5029214;28;20470;-52
2023/08/04 07:01:50;;;;;;;8.57;3.20;;;16.90;99.90;;;;;;5030041;28;20511;-52
2023/08/04 07:04:18;;;;;;;12.47;2.57;;;17.00;79.60;;;;;;5030769;28;20601;-53
2023/08/04 07:06:44;;;;;;;7.40;2.90;;;17.00;22.00;;;;;;5036812;28;20498;-51
2023/08/04 07:09:11;;;;;;;7.50;3.17;;;17.10;22.80;;;;;;5031736;28;20491;-53
2023/08/04 07:11:37;;;;;;;9.87;3.50;;;17.10;25.50;;;;;;5030095;28;20458;-52
2023/08/04 07:14:04;;;;;;;9.27;3.10;;;17.20;25.90;;;;;;5030264;28;20559;-52
2023/08/04 07:16:30;;;;;;;7.70;2.90;;;17.30;23.50;;;;;;5036869;28;20536;-52
2023/08/04 07:18:57;;;;;;;13.20;3.00;;;17.30;27.80;;;;;;5021169;28;20558;-51
2023/08/04 07:21:25;;;;;;;13.20;3.17;;;17.30;27.40;;;;;;5024217;28;20459;-52
2023/08/04 07:23:51;;;;;;;10.40;3.40;;;17.30;29.80;;;;;;5023382;28;20551;-51
2023/08/04 07:26:18;;;;;;;6.63;2.33;;;17.30;27.60;;;;;;5025908;28;20499;-52
2023/08/04 07:28:44;;;;;;;11.20;2.70;;;17.30;38.90;;;;;;5032082;28;20886;-51
2023/08/04 07:31:11;;;;;;;6.27;2.90;;;17.30;41.20;;;;;;5042453;28;20493;-52
2023/08/04 07:33:38;;;;;;;12.67;3.13;;;17.40;39.80;;;;;;5039286;28;20523;-51
2023/08/04 07:36:05;;;;;;;7.67;2.80;;;17.50;36.80;;;;;;5027353;28;20506;-52
2023/08/04 07:38:33;;;;;;;3.73;2.43;;;17.50;51.40;;;;;;5030049;28;20462;-51
2023/08/04 07:40:59;;;;;;;5.70;2.57;;;17.60;51.60;;;;;;5022988;28;20904;-51
2023/08/04 07:43:26;;;;;;;16.00;3.30;;;17.70;73.80;;;;;;5024340;28;20494;-52
2023/08/04 07:45:54;;;;;;;9.57;2.57;;;17.70;73.10;;;;;;5027608;28;20486;-52
2023/08/04 07:48:21;;;;;;;11.60;2.60;;;17.80;83.20;;;;;;5033723;28;20455;-53
2023/08/04 07:50:50;;;;;;;13.10;2.87;;;18.00;75.40;;;;;;5031997;28;20458;-50
2023/08/04 07:53:16;;;;;;;10.03;2.50;;;18.10;84.10;;;;;;5032015;28;20493;-51
2023/08/04 07:55:54;;;;;;;9.13;2.63;;;18.30;88.40;;;;;;5034691;28;20514;-51
2023/08/04 07:58:21;;;;;;;7.40;3.00;;;18.30;97.50;;;;;;5036342;28;20891;-51
2023/08/04 08:00:47;;;;;;;5.00;2.60;;;18.40;93.90;;;;;;5033325;28;20505;-51
2023/08/04 08:03:14;;;;;;;10.80;3.87;;;18.40;93.60;;;;;;5025443;28;20525;-51
2023/08/04 08:05:41;;;;;;;5.07;2.43;;;18.50;85.60;;;;;;5033819;28;20471;-51
2023/08/04 08:08:07;;;;;;;6.67;3.20;;;18.60;99.50;;;;;;5033151;28;20486;-51
2023/08/04 08:10:34;;;;;;;9.30;2.43;;;18.60;94.50;;;;;;5033459;28;20443;-51
2023/08/04 08:13:02;;;;;;;7.63;2.47;;;18.60;95.10;;;;;;5025849;28;20491;-51
2023/08/04 08:15:29;;;;;;;9.23;2.40;;;18.60;89.60;;;;;;5029592;28;20524;-52
2023/08/04 08:17:55;;;;;;;13.50;2.90;;;18.50;92.00;;;;;;5029535;28;20991;-52
2023/08/04 08:20:22;;;;;;;9.60;2.73;;;18.50;94.70;;;;;;5031310;28;20521;-51
2023/08/04 08:22:48;;;;;;;9.33;3.30;;;18.40;71.60;;;;;;5030317;28;20578;-56
2023/08/04 08:25:15;;;;;;;7.00;2.67;;;18.30;83.10;;;;;;5029199;28;20510;-52
2023/08/04 08:27:41;;;;;;;5.50;2.73;;;18.30;80.20;;;;;;5032534;28;20497;-52
2023/08/04 08:30:11;;;;;;;5.00;2.70;;;18.50;94.50;;;;;;5038018;28;20466;-51
2023/08/04 08:32:37;;;;;;;7.30;2.40;;;18.70;98.50;;;;;;5028037;28;20471;-51
2023/08/04 08:35:05;;;;;;;5.63;2.40;;;18.80;99.90;;;;;;5029656;28;21603;-50
2023/08/04 08:37:31;;;;;;;3.00;2.00;;;18.80;99.90;;;;;;5032685;28;20478;-50
2023/08/04 08:39:58;;;;;;;6.43;2.27;;;18.70;99.90;;;;;;5032268;28;20481;-52
2023/08/04 08:42:25;;;;;;;4.87;2.10;;;18.60;99.90;;;;;;5030314;28;20957;-51
2023/08/04 08:44:51;;;;;;;8.70;2.80;;;18.80;99.90;;;;;;5025713;28;20518;-52
2023/08/04 08:47:21;;;;;;;11.70;2.50;;;18.90;99.90;;;;;;5033947;28;20505;-51
2023/08/04 08:49:52;;;;;;;8.90;2.20;;;19.10;99.90;;;;;;5029761;28;20550;-51
2023/08/04 08:52:22;;;;;;;6.03;2.17;;;19.40;99.90;;;;;;5030479;28;20520;-50
2023/08/04 08:54:50;;;;;;;6.03;2.53;;;19.30;99.90;;;;;;5041035;22;20498;-54
2023/08/04 08:57:16;;;;;;;10.37;2.93;;;19.50;99.90;;;;;;5030524;28;20510;-53
2023/08/04 08:59:43;;;;;;;14.27;2.90;;;19.40;99.90;;;;;;5037046;28;20494;-54
2023/08/04 09:02:10;;;;;;;5.10;2.40;;;19.40;99.90;;;;;;5030360;28;20478;-54
2023/08/04 09:04:38;;;;;;;6.03;2.40;;;19.40;99.90;;;;;;5027511;28;20518;-54
2023/08/04 09:07:06;;;;;;;4.13;2.43;;;19.60;99.90;;;;;;5024630;28;20779;-53
2023/08/04 09:09:33;;;;;;;4.10;1.90;;;19.80;99.90;;;;;;5029603;28;20498;-54
2023/08/04 09:12:00;;;;;;;10.67;2.70;;;19.90;99.90;;;;;;5031864;28;21106;-53
2023/08/04 09:14:27;;;;;;;7.90;2.00;;;20.10;99.90;;;;;;5027424;28;20975;-53
2023/08/04 09:16:53;;;;;;;8.57;2.10;;;20.20;99.90;;;;;;5033434;28;20514;-53
2023/08/04 09:19:20;;;;;;;3.70;1.43;;;20.20;99.90;;;;;;5029737;28;20486;-54
2023/08/04 09:21:58;;;;;;;4.10;2.10;;;20.50;99.90;;;;;;5032597;28;20963;-54
2023/08/04 09:24:25;;;;;;;12.20;2.83;;;20.60;99.90;;;;;;5027384;28;20549;-54
2023/08/04 09:26:52;;;;;;;4.80;1.90;;;20.60;99.90;;;;;;5027339;28;20512;-53
2023/08/04 09:29:18;;;;;;;10.30;2.30;;;20.50;99.90;;;;;;5032615;28;20512;-53
2023/08/04 09:31:47;;;;;;;5.40;1.97;;;20.40;99.90;;;;;;5035367;28;20951;-54
2023/08/04 09:34:14;;;;;;;7.83;2.37;;;20.20;99.90;;;;;;5035598;28;20446;-54
2023/08/04 09:36:44;;;;;;;5.40;2.27;;;20.10;99.90;;;;;;5026767;28;20471;-53
2023/08/04 09:39:13;;;;;;;5.77;1.90;;;20.00;99.90;;;;;;5030684;28;20494;-53
2023/08/04 09:41:46;;;;;;;3.90;2.37;;;20.00;99.90;;;;;;5040294;28;20504;-54
2023/08/04 09:44:17;;;;;;;5.50;2.43;;;20.10;99.90;;;;;;5027933;28;20494;-53
2023/08/04 09:46:49;;;;;;;4.93;2.50;;;20.00;99.90;;;;;;5035300;28;20518;-53
2023/08/04 09:49:15;;;;;;;8.20;2.87;;;19.90;99.90;;;;;;5031104;28;20894;-53
2023/08/04 09:51:43;;;;;;;5.50;2.30;;;19.90;99.90;;;;;;5038560;28;20459;-53
2023/08/04 09:54:10;;;;;;;6.67;2.17;;;19.90;99.90;;;;;;5030519;28;20928;-54
2023/08/04 09:56:37;;;;;;;7.90;2.17;;;20.00;99.90;;;;;;5034848;28;20548;-53
2023/08/04 09:59:04;;;;;;;14.20;2.37;;;20.00;99.90;;;;;;5041706;28;20545;-52
2023/08/04 10:01:32;;;;;;;7.90;2.80;;;20.00;99.90;;;;;;5039466;28;20497;-52
2023/08/04 10:03:58;;;;;;;6.10;2.03;;;19.90;99.90;;;;;;5034108;28;20525;-52
2023/08/04 10:06:26;;;;;;;4.13;1.63;;;19.90;99.90;;;;;;5044365;28;20482;-51
2023/08/04 10:08:54;;;;;;;5.33;2.47;;;19.80;99.90;;;;;;5039493;28;20463;-52
2023/08/04 10:11:22;;;;;;;6.70;2.20;;;19.90;99.90;;;;;;5033704;28;20512;-52
2023/08/04 10:13:53;;;;;;;8.10;2.57;;;19.80;99.90;;;;;;5040885;28;20474;-53
2023/08/04 10:16:23;;;;;;;5.27;2.90;;;19.80;99.90;;;;;;5027479;28;20595;-53
2023/08/04 10:18:52;;;;;;;12.43;2.60;;;19.90;99.90;;;;;;5025853;28;20545;-51
2023/08/04 10:21:20;;;;;;;6.63;2.07;;;19.80;99.90;;;;;;5028020;28;20991;-53
2023/08/04 10:23:47;;;;;;;7.43;2.50;;;19.80;99.90;;;;;;5030214;28;20469;-52
2023/08/04 10:26:14;;;;;;;10.63;2.10;;;19.80;99.90;;;;;;5032363;28;20510;-52
2023/08/04 10:29:02;;;;;;;10.73;2.50;;;19.90;99.90;;;;;;5041656;28;20498;-52
2023/08/04 10:31:44;;;;;;;7.47;2.23;;;20.10;99.90;;;;;;5039431;28;20545;-52
2023/08/04 10:34:25;;;;;;;4.70;2.20;;;20.30;99.90;;;;;;5029756;28;20466;-52
2023/08/04 10:36:58;;;;;;;4.70;2.30;;;20.50;99.90;;;;;;5033835;28;20473;-53
2023/08/04 10:39:31;;;;;;;8.13;2.60;;;20.90;99.90;;;;;;5030980;28;20486;-52
2023/08/04 10:41:58;;;;;;;6.17;2.57;;;21.50;99.90;;;;;;5030647;28;20499;-53
2023/08/04 10:44:30;;;;;;;5.23;2.63;;;22.70;99.90;;;;;;5027667;28;20496;-52
2023/08/04 10:47:01;;;;;;;9.40;2.63;;;23.00;50.30;;;;;;5028789;28;20538;-54
2023/08/04 10:49:28;;;;;;;6.13;2.30;;;23.40;72.60;;;;;;5039972;28;20461;-51
2023/08/04 10:51:56;;;;;;;7.93;2.70;;;23.20;70.90;;;;;;5031662;28;20490;-52
2023/08/04 10:54:22;;;;;;;7.33;2.30;;;21.80;62.30;;;;;;5038559;28;20527;-53
2023/08/04 10:56:49;;;;;;;6.37;2.50;;;22.10;44.20;;;;;;5030344;28;20494;-51
2023/08/04 10:59:16;;;;;;;5.50;2.67;;;21.60;23.20;;;;;;5034512;28;20497;-52
2023/08/04 11:01:46;;;;;;;5.90;2.53;;;21.30;99.90;;;;;;5030948;28;20498;-52
2023/08/04 11:04:13;;;;;;;7.43;2.90;;;21.10;99.90;;;;;;5030677;28;20495;-52
2023/08/04 11:06:39;;;;;;;7.83;2.67;;;20.90;99.90;;;;;;5030837;28;20502;-52
2023/08/04 11:09:06;;;;;;;11.30;2.53;;;21.80;21.70;;;;;;5026891;28;20504;-52
2023/08/04 11:11:35;;;;;;;4.90;2.33;;;23.10;49.40;;;;;;5028360;28;21199;-52
2023/08/04 11:14:03;;;;;;;6.73;3.23;;;23.70;80.80;;;;;;5032064;28;20542;-52
2023/08/04 11:16:32;;;;;;;8.53;2.73;;;24.50;83.60;;;;;;5028110;28;20498;-53
2023/08/04 11:19:00;;;;;;;7.23;2.60;;;24.10;99.90;;;;;;5025953;28;20557;-52
2023/08/04 11:21:29;;;;;;;5.37;2.53;;;24.70;99.90;;;;;;5029972;28;20909;-53
2023/08/04 11:23:56;;;;;;;5.40;2.53;;;24.10;99.90;;;;;;5030102;28;20498;-53
2023/08/04 11:26:23;;;;;;;9.57;2.87;;;23.90;99.90;;;;;;5031915;28;20503;-53
2023/08/04 11:28:50;;;;;;;3.60;2.33;;;23.40;96.10;;;;;;5033334;28;20462;-53
2023/08/04 11:31:21;;;;;;;13.53;3.47;;;23.50;78.80;;;;;;5036963;28;20490;-53
2023/08/04 11:33:47;;;;;;;5.60;2.33;;;23.30;84.70;;;;;;5032030;28;20506;-53
2023/08/04 11:36:15;;;;;;;3.83;2.10;;;22.80;68.40;;;;;;5033008;28;20504;-54
2023/08/04 11:38:41;;;;;;;5.80;2.30;;;22.40;70.20;;;;;;5032346;28;20525;-53
2023/08/04 11:41:10;;;;;;;6.33;2.20;;;22.10;71.40;;;;;;5034377;28;20494;-53
2023/08/04 11:43:37;;;;;;;3.30;1.70;;;21.90;59.70;;;;;;5025611;28;20438;-54
2023/08/04 11:46:06;;;;;;;3.37;1.90;;;21.60;60.60;;;;;;5033478;28;20507;-52
2023/08/04 11:48:35;;;;;;;3.53;1.93;;;21.40;50.70;;;;;;5030733;28;20539;-52
2023/08/04 11:51:02;;;;;;;5.37;1.97;;;21.20;48.50;;;;;;5024294;28;20463;-53
2023/08/04 11:53:30;;;;;;;9.17;2.60;;;21.10;39.50;;;;;;5035825;28;20458;-52
2023/08/04 11:55:58;;;;;;;8.67;2.43;;;21.20;39.70;;;;;;5026980;28;20934;-52
2023/08/04 11:58:32;;;;;;;2.33;1.60;;;21.20;61.20;;;;;;5030084;28;20490;-52
2023/08/04 12:00:59;;;;;;;5.07;2.20;;;21.20;56.90;;;;;;5030530;28;20472;-53
2023/08/04 12:03:25;;;;;;;12.90;2.77;;;21.40;58.20;;;;;;5032290;28;20489;-53
2023/08/04 12:05:52;;;;;;;4.57;2.83;;;21.80;58.20;;;;;;5038085;28;20514;-52
2023/08/04 12:08:19;;;;;;;6.70;2.40;;;21.90;77.10;;;;;;5027462;28;20479;-52
2023/08/04 12:11:01;;;;;;;8.00;3.13;;;22.20;75.50;;;;;;5022164;28;20880;-52
2023/08/04 12:13:35;;;;;;;7.00;2.00;;;22.00;77.20;;;;;;5031351;28;20450;-52
2023/08/04 12:16:01;;;;;;;4.00;1.80;;;21.80;76.00;;;;;;5031980;28;20479;-53
2023/08/04 12:18:29;;;;;;;2.97;1.97;;;21.50;71.80;;;;;;5030981;28;20518;-52
2023/08/04 12:20:57;;;;;;;6.13;1.90;;;21.30;57.90;;;;;;5028396;28;20511;-52
2023/08/04 12:23:23;;;;;;;14.33;2.80;;;21.30;61.10;;;;;;5032813;28;20467;-53
2023/08/04 12:25:51;;;;;;;3.20;2.27;;;21.20;50.80;;;;;;5039001;28;20547;-52
2023/08/04 12:28:18;;;;;;;5.43;2.40;;;21.20;40.30;;;;;;5026256;28;20455;-54
2023/08/04 12:30:44;;;;;;;3.80;2.27;;;21.00;36.40;;;;;;5035717;28;20519;-54
2023/08/04 12:33:11;;;;;;;4.90;2.23;;;21.10;32.90;;;;;;5032139;28;20486;-52
2023/08/04 12:35:37;;;;;;;5.83;2.20;;;21.50;24.10;;;;;;5022410;28;20539;-55
2023/08/04 12:38:04;;;;;;;4.80;2.00;;;22.00;63.60;;;;;;5027637;28;20510;-52
2023/08/04 12:40:31;;;;;;;11.43;1.87;;;22.20;72.80;;;;;;5026801;28;20915;-53
2023/08/04 12:42:59;;;;;;;7.43;2.30;;;22.00;70.60;;;;;;5032167;28;20458;-53